Time;durP1;ratioP1;P1;durP2;ratioP2;P2;SDS_P1;SDS_P2;PMS_P1;PMS_P2;Temp;Humidity;BMP_temperature;BMP_pressure;BME280_temperature;BME280_humidity;BME280_pressure;Samples;Min_cycle;Max_cycle;Signal;HPM_P1;HPM_P2
2023/01/24 00:00:51;;;;;;;19.85;13.43;;;;;;;;;;7357371;19;20012;-75
2023/01/24 00:03:16;;;;;;;20.75;13.60;;;;;;;;;;7364842;19;20433;-75
2023/01/24 00:05:43;;;;;;;21.45;14.15;;;;;;;;;;7369312;19;19991;-75
2023/01/24 00:08:09;;;;;;;19.75;13.18;;;;;;;;;;7371625;19;20014;-76
2023/01/24 00:10:34;;;;;;;20.83;13.80;;;;;;;;;;7361691;19;20483;-77
2023/01/24 00:12:59;;;;;;;21.48;14.00;;;;;;;;;;7370401;19;20010;-76
2023/01/24 00:15:25;;;;;;;20.52;13.80;;;;;;;;;;7357423;19;20019;-76
2023/01/24 00:17:50;;;;;;;21.15;14.00;;;;;;;;;;7362564;19;20062;-75
2023/01/24 00:20:15;;;;;;;22.15;14.52;;;;;;;;;;7366495;19;20605;-76
2023/01/24 00:22:40;;;;;;;22.73;14.73;;;;;;;;;;7367083;19;20018;-75
2023/01/24 00:25:06;;;;;;;20.55;13.60;;;;;;;;;;7358723;19;20481;-75
2023/01/24 00:27:31;;;;;;;21.63;13.75;;;;;;;;;;7365422;19;20159;-75
2023/01/24 00:29:57;;;;;;;19.25;13.68;;;;;;;;;;7364471;19;20030;-76
2023/01/24 00:32:22;;;;;;;20.05;13.18;;;;;;;;;;7362021;19;20011;-75
2023/01/24 00:34:48;;;;;;;28.40;14.88;;;;;;;;;;7371128;19;20009;-76
2023/01/24 00:37:13;;;;;;;19.92;13.73;;;;;;;;;;7365130;19;20433;-75
2023/01/24 00:39:38;;;;;;;21.70;13.85;;;;;;;;;;7362620;19;20068;-75
2023/01/24 00:42:03;;;;;;;22.95;13.93;;;;;;;;;;7370414;19;20088;-75
2023/01/24 00:44:28;;;;;;;21.73;13.68;;;;;;;;;;7363172;19;20014;-75
2023/01/24 00:46:54;;;;;;;22.40;14.73;;;;;;;;;;7361892;19;20018;-75
2023/01/24 00:49:19;;;;;;;20.30;13.88;;;;;;;;;;7366644;19;20002;-76
2023/01/24 00:51:45;;;;;;;21.63;14.02;;;;;;;;;;7368636;19;20010;-75
2023/01/24 00:54:10;;;;;;;19.75;13.80;;;;;;;;;;7365227;19;20034;-75
2023/01/24 00:56:35;;;;;;;18.75;12.95;;;;;;;;;;7364247;19;20038;-75
2023/01/24 00:59:00;;;;;;;20.88;13.77;;;;;;;;;;7366499;19;20010;-76
2023/01/24 01:01:26;;;;;;;22.57;13.97;;;;;;;;;;7360521;19;20003;-75
2023/01/24 01:03:54;;;;;;;19.63;13.80;;;;;;;;;;7365961;19;20251;-76
2023/01/24 01:06:19;;;;;;;22.98;14.43;;;;;;;;;;7348309;19;20335;-75
2023/01/24 01:08:44;;;;;;;23.10;15.23;;;;;;;;;;7361507;19;20050;-75
2023/01/24 01:11:09;;;;;;;26.77;15.68;;;;;;;;;;7367051;19;20314;-75
2023/01/24 01:13:35;;;;;;;22.60;13.70;;;;;;;;;;7361563;19;20328;-76
2023/01/24 01:16:04;;;;;;;22.83;14.90;;;;;;;;;;7339889;19;20032;-75
2023/01/24 01:18:30;;;;;;;23.05;14.93;;;;;;;;;;7358109;19;20010;-75
2023/01/24 01:20:55;;;;;;;23.02;14.80;;;;;;;;;;7368441;19;20027;-75
2023/01/24 01:23:20;;;;;;;21.15;14.50;;;;;;;;;;7358492;19;20017;-75
2023/01/24 01:25:45;;;;;;;23.25;15.52;;;;;;;;;;7366318;19;20003;-75
2023/01/24 01:28:11;;;;;;;23.45;15.40;;;;;;;;;;7364515;19;20007;-76
2023/01/24 01:30:36;;;;;;;23.33;16.27;;;;;;;;;;7352721;19;20013;-75
2023/01/24 01:33:01;;;;;;;23.27;16.10;;;;;;;;;;7360728;19;20007;-76
2023/01/24 01:35:26;;;;;;;23.63;16.00;;;;;;;;;;7359413;19;20466;-76
2023/01/24 01:37:51;;;;;;;24.67;15.60;;;;;;;;;;7365781;19;20332;-75
2023/01/24 01:40:17;;;;;;;26.05;16.23;;;;;;;;;;7363068;19;20010;-75
2023/01/24 01:42:49;;;;;;;25.70;16.92;;;;;;;;;;7363742;19;20477;-76
2023/01/24 01:45:32;;;;;;;25.48;16.92;;;;;;;;;;7357587;19;20118;-76
2023/01/24 01:47:58;;;;;;;25.10;17.00;;;;;;;;;;7364610;19;20022;-75
2023/01/24 01:50:28;;;;;;;25.67;17.02;;;;;;;;;;7356484;19;20251;-75
2023/01/24 01:52:53;;;;;;;25.58;17.23;;;;;;;;;;7366098;19;20010;-75
2023/01/24 01:55:20;;;;;;;26.48;17.63;;;;;;;;;;7363919;19;19998;-76
2023/01/24 01:57:47;;;;;;;26.17;17.17;;;;;;;;;;7362850;19;20020;-76
2023/01/24 02:00:23;;;;;;;24.33;16.55;;;;;;;;;;7337879;19;19998;-75
2023/01/24 02:02:50;;;;;;;25.48;16.63;;;;;;;;;;7362844;19;20019;-75
2023/01/24 02:05:19;;;;;;;25.92;17.70;;;;;;;;;;7358496;19;20522;-75
2023/01/24 02:07:47;;;;;;;25.75;16.70;;;;;;;;;;7363685;19;20010;-75
2023/01/24 02:10:12;;;;;;;26.20;16.90;;;;;;;;;;7347508;19;20349;-76
2023/01/24 02:12:41;;;;;;;24.90;17.08;;;;;;;;;;7346249;19;20090;-74
2023/01/24 02:18:00;;;;;;;26.40;17.17;;;;;;;;;;7269778;19;20790;-75
2023/01/24 02:20:40;;;;;;;25.45;16.80;;;;;;;;;;7259187;19;20022;-76
2023/01/24 02:23:05;;;;;;;27.10;17.98;;;;;;;;;;7259994;19;20011;-76
2023/01/24 02:25:31;;;;;;;25.70;17.52;;;;;;;;;;7261089;19;20740;-76
2023/01/24 02:27:58;;;;;;;26.05;17.67;;;;;;;;;;7267116;19;20106;-75
2023/01/24 02:30:23;;;;;;;25.55;17.20;;;;;;;;;;7266132;19;20846;-76
2023/01/24 02:32:48;;;;;;;28.98;18.98;;;;;;;;;;7270745;19;20078;-76
2023/01/24 02:35:21;;;;;;;29.00;18.88;;;;;;;;;;7270720;19;20416;-76
2023/01/24 02:37:47;;;;;;;28.45;17.85;;;;;;;;;;7271095;19;20041;-76
2023/01/24 02:40:12;;;;;;;28.40;17.77;;;;;;;;;;7263435;19;21048;-75
2023/01/24 02:42:38;;;;;;;26.90;17.90;;;;;;;;;;7262882;19;20018;-75
2023/01/24 02:45:21;;;;;;;25.90;17.77;;;;;;;;;;7263289;19;20565;-75
2023/01/24 02:47:47;;;;;;;31.00;18.60;;;;;;;;;;7271927;19;20589;-75
2023/01/24 02:50:13;;;;;;;26.40;17.73;;;;;;;;;;7267534;19;20105;-75
2023/01/24 02:55:22;;;;;;;27.95;18.33;;;;;;;;;;7262416;19;20033;-73
2023/01/24 02:58:05;;;;;;;26.40;17.73;;;;;;;;;;7265475;19;20758;-75
2023/01/24 03:00:33;;;;;;;25.63;18.08;;;;;;;;;;7258831;19;20512;-76
2023/01/24 03:02:58;;;;;;;26.73;18.55;;;;;;;;;;7266030;19;20018;-77
2023/01/24 03:05:23;;;;;;;25.30;17.45;;;;;;;;;;7261986;19;20007;-76
2023/01/24 03:07:49;;;;;;;24.38;16.80;;;;;;;;;;7269605;19;19999;-77
2023/01/24 03:10:15;;;;;;;24.80;17.25;;;;;;;;;;7263607;19;20485;-76
2023/01/24 03:34:45;;;;;;;26.33;18.00;;;;;;;;;;7367303;19;20119;-74
2023/01/24 03:37:10;;;;;;;28.05;18.63;;;;;;;;;;7372822;19;20088;-75
2023/01/24 03:39:58;;;;;;;26.52;17.83;;;;;;;;;;7364126;19;19994;-74
2023/01/24 03:42:23;;;;;;;25.00;16.65;;;;;;;;;;7366788;19;20006;-75
2023/01/24 03:44:48;;;;;;;25.20;18.08;;;;;;;;;;7362623;19;20010;-75
2023/01/24 03:47:13;;;;;;;26.40;17.30;;;;;;;;;;7366935;19;19991;-72
2023/01/24 03:52:28;;;;;;;26.60;17.80;;;;;;;;;;7368555;19;20013;-76
2023/01/24 03:54:54;;;;;;;27.13;17.60;;;;;;;;;;7369001;19;20456;-75
2023/01/24 03:57:20;;;;;;;26.25;18.02;;;;;;;;;;7369783;19;20014;-76
2023/01/24 03:59:45;;;;;;;26.20;18.02;;;;;;;;;;7365144;19;20098;-74
2023/01/24 04:02:10;;;;;;;27.02;18.63;;;;;;;;;;7363870;19;20007;-76
2023/01/24 04:07:19;;;;;;;28.63;19.25;;;;;;;;;;7368157;19;20009;-76
2023/01/24 04:09:44;;;;;;;25.75;18.02;;;;;;;;;;7366794;19;20011;-75
2023/01/24 04:12:10;;;;;;;26.67;18.20;;;;;;;;;;7369740;19;20156;-75
2023/01/24 04:14:35;;;;;;;27.33;18.10;;;;;;;;;;7361235;19;20002;-75
2023/01/24 04:17:00;;;;;;;26.20;17.70;;;;;;;;;;7369856;19;20361;-75
2023/01/24 04:19:25;;;;;;;25.00;17.40;;;;;;;;;;7366236;19;20110;-75
2023/01/24 04:21:50;;;;;;;25.88;17.55;;;;;;;;;;7366818;19;19999;-76
2023/01/24 04:24:16;;;;;;;25.58;17.63;;;;;;;;;;7357482;19;20022;-75
2023/01/24 04:26:41;;;;;;;26.58;17.30;;;;;;;;;;7363066;19;19999;-75
2023/01/24 04:29:06;;;;;;;25.48;17.58;;;;;;;;;;7365646;19;20014;-75
2023/01/24 04:31:31;;;;;;;25.33;18.05;;;;;;;;;;7362490;19;20021;-76
2023/01/24 04:33:57;;;;;;;27.75;18.10;;;;;;;;;;7368049;19;20018;-75
2023/01/24 04:36:22;;;;;;;27.60;18.23;;;;;;;;;;7368682;19;20006;-75
2023/01/24 04:38:47;;;;;;;27.10;17.98;;;;;;;;;;7370624;19;20014;-75
2023/01/24 04:41:13;;;;;;;25.83;17.17;;;;;;;;;;7368337;19;20726;-75
2023/01/24 04:43:39;;;;;;;26.73;17.55;;;;;;;;;;7362759;19;20011;-75
2023/01/24 04:46:04;;;;;;;24.20;17.13;;;;;;;;;;7351738;19;20035;-75
2023/01/24 04:48:29;;;;;;;25.20;17.17;;;;;;;;;;7365827;19;20333;-74
2023/01/24 04:51:01;;;;;;;25.33;18.40;;;;;;;;;;7370830;19;20334;-76
2023/01/24 04:53:27;;;;;;;22.50;15.77;;;;;;;;;;7367185;19;20300;-75
2023/01/24 04:55:52;;;;;;;25.08;17.55;;;;;;;;;;7365265;19;20066;-75
2023/01/24 04:58:17;;;;;;;27.20;17.33;;;;;;;;;;7369107;19;20002;-74
2023/01/24 05:00:43;;;;;;;26.95;17.92;;;;;;;;;;7358532;19;20072;-76
2023/01/24 05:03:08;;;;;;;25.90;17.33;;;;;;;;;;7360868;19;20010;-75
2023/01/24 05:05:33;;;;;;;25.45;17.08;;;;;;;;;;7364841;19;20019;-75
2023/01/24 05:07:58;;;;;;;24.10;16.85;;;;;;;;;;7368458;19;20005;-75
2023/01/24 05:10:24;;;;;;;26.52;16.88;;;;;;;;;;7364507;19;20449;-76
2023/01/24 05:12:49;;;;;;;26.23;17.67;;;;;;;;;;7362997;19;20077;-76
2023/01/24 05:15:14;;;;;;;25.98;17.35;;;;;;;;;;7357763;19;20014;-75
2023/01/24 05:17:42;;;;;;;26.23;18.35;;;;;;;;;;7359126;19;20119;-75
2023/01/24 05:20:08;;;;;;;25.95;17.77;;;;;;;;;;7364805;19;20097;-75
2023/01/24 05:22:33;;;;;;;26.33;17.90;;;;;;;;;;7364718;19;20006;-74
2023/01/24 05:24:58;;;;;;;29.67;19.70;;;;;;;;;;7362795;19;20022;-74
2023/01/24 05:27:23;;;;;;;28.95;20.00;;;;;;;;;;7364120;19;20401;-74
2023/01/24 05:29:49;;;;;;;23.95;17.48;;;;;;;;;;7359249;19;20143;-75
2023/01/24 05:32:14;;;;;;;28.70;19.25;;;;;;;;;;7360840;19;20391;-74
2023/01/24 05:34:39;;;;;;;31.92;21.33;;;;;;;;;;7357958;19;20225;-74
2023/01/24 05:37:04;;;;;;;29.88;21.33;;;;;;;;;;7364093;19;20002;-74
2023/01/24 05:39:29;;;;;;;32.50;22.58;;;;;;;;;;7358733;19;20712;-74
2023/01/24 05:41:55;;;;;;;35.15;23.35;;;;;;;;;;7360667;19;20342;-75
2023/01/24 05:44:20;;;;;;;34.90;22.85;;;;;;;;;;7347020;19;20117;-76
2023/01/24 05:46:45;;;;;;;33.15;22.58;;;;;;;;;;7357796;19;20034;-74
2023/01/24 05:49:10;;;;;;;34.72;24.17;;;;;;;;;;7367250;19;20015;-74
2023/01/24 05:51:35;;;;;;;34.38;23.30;;;;;;;;;;7362590;19;20061;-73
2023/01/24 05:54:00;;;;;;;30.85;21.98;;;;;;;;;;7366153;19;20117;-73
2023/01/24 05:56:27;;;;;;;33.10;22.90;;;;;;;;;;7361341;19;20177;-75
2023/01/24 05:58:52;;;;;;;36.30;23.88;;;;;;;;;;7365678;19;20393;-76
2023/01/24 06:01:19;;;;;;;36.95;24.25;;;;;;;;;;7361811;19;20027;-74
2023/01/24 06:03:46;;;;;;;34.15;23.27;;;;;;;;;;7363072;19;20025;-74
2023/01/24 06:06:12;;;;;;;37.17;25.50;;;;;;;;;;7361873;19;20012;-74
2023/01/24 06:08:37;;;;;;;35.35;24.20;;;;;;;;;;7353160;19;20018;-74
2023/01/24 06:11:04;;;;;;;37.08;24.88;;;;;;;;;;7367175;19;20365;-74
2023/01/24 06:13:30;;;;;;;33.22;22.95;;;;;;;;;;7365902;19;20043;-75
2023/01/24 06:16:05;;;;;;;29.98;21.23;;;;;;;;;;7357395;19;20444;-74
2023/01/24 06:18:31;;;;;;;28.98;19.92;;;;;;;;;;7364756;19;20814;-74
2023/01/24 06:20:56;;;;;;;31.02;20.45;;;;;;;;;;7361761;19;20027;-74
2023/01/24 06:23:26;;;;;;;32.40;21.80;;;;;;;;;;7353781;19;20006;-72
2023/01/24 06:25:51;;;;;;;30.40;21.27;;;;;;;;;;7365107;19;20123;-74
2023/01/24 06:28:17;;;;;;;34.60;22.95;;;;;;;;;;7365424;19;20022;-75
2023/01/24 06:30:44;;;;;;;33.13;22.65;;;;;;;;;;7342532;19;20515;-74
2023/01/24 06:33:18;;;;;;;32.70;22.77;;;;;;;;;;7360285;19;20569;-74
2023/01/24 06:35:46;;;;;;;32.47;22.55;;;;;;;;;;7361984;19;20019;-74
2023/01/24 06:38:22;;;;;;;33.90;22.10;;;;;;;;;;7363982;19;20010;-74
2023/01/24 06:40:51;;;;;;;31.10;22.05;;;;;;;;;;7357262;19;19995;-75
2023/01/24 06:43:16;;;;;;;33.00;22.88;;;;;;;;;;7360541;19;20022;-74
2023/01/24 06:45:41;;;;;;;32.53;23.02;;;;;;;;;;7333941;19;20007;-75
2023/01/24 06:48:06;;;;;;;35.58;23.45;;;;;;;;;;7358826;19;20019;-74
2023/01/24 06:50:33;;;;;;;30.98;21.02;;;;;;;;;;7354651;19;20324;-75
2023/01/24 06:52:58;;;;;;;32.30;21.90;;;;;;;;;;7358264;19;20023;-74
2023/01/24 06:55:23;;;;;;;32.22;21.50;;;;;;;;;;7360079;19;20455;-74
2023/01/24 06:57:55;;;;;;;30.92;21.67;;;;;;;;;;7362214;19;20289;-73
2023/01/24 07:00:20;;;;;;;35.53;23.40;;;;;;;;;;7361556;19;20052;-74
2023/01/24 07:02:45;;;;;;;32.53;21.80;;;;;;;;;;7361184;19;20007;-74
2023/01/24 07:05:10;;;;;;;30.98;21.02;;;;;;;;;;7362785;19;20007;-75
2023/01/24 07:07:36;;;;;;;30.08;21.00;;;;;;;;;;7361564;19;20023;-74
2023/01/24 07:10:01;;;;;;;30.67;21.40;;;;;;;;;;7362790;19;20019;-73
2023/01/24 07:12:26;;;;;;;29.50;21.40;;;;;;;;;;7372693;19;20015;-74
2023/01/24 07:14:51;;;;;;;34.60;22.40;;;;;;;;;;7361354;19;20079;-73
2023/01/24 07:17:16;;;;;;;36.13;24.10;;;;;;;;;;7371125;19;20084;-74
2023/01/24 07:19:42;;;;;;;34.63;23.98;;;;;;;;;;7369977;19;20031;-74
2023/01/24 07:22:11;;;;;;;31.45;21.75;;;;;;;;;;7368777;19;20056;-73
2023/01/24 07:24:36;;;;;;;32.42;21.80;;;;;;;;;;7356065;19;20422;-73
2023/01/24 07:27:01;;;;;;;30.08;20.98;;;;;;;;;;7363031;19;20006;-73
2023/01/24 07:29:27;;;;;;;28.38;19.40;;;;;;;;;;7366004;19;20010;-74
2023/01/24 07:31:52;;;;;;;31.00;21.15;;;;;;;;;;7356210;19;20148;-75
2023/01/24 07:34:17;;;;;;;33.38;21.40;;;;;;;;;;7359584;19;20329;-74
2023/01/24 07:36:43;;;;;;;30.02;21.17;;;;;;;;;;7362661;19;20018;-76
2023/01/24 07:39:08;;;;;;;35.90;21.48;;;;;;;;;;7362805;19;20018;-75
2023/01/24 07:41:38;;;;;;;29.60;20.50;;;;;;;;;;7363941;19;20011;-76
2023/01/24 07:44:05;;;;;;;32.40;22.00;;;;;;;;;;7367426;19;20014;-75
2023/01/24 07:46:31;;;;;;;34.20;22.23;;;;;;;;;;7357321;19;20570;-75
2023/01/24 07:48:56;;;;;;;31.95;22.27;;;;;;;;;;7358351;19;20107;-75
2023/01/24 07:51:22;;;;;;;33.10;23.50;;;;;;;;;;7369314;19;20031;-76
2023/01/24 07:53:47;;;;;;;33.30;22.42;;;;;;;;;;7366095;19;20437;-75
2023/01/24 07:56:14;;;;;;;35.58;23.80;;;;;;;;;;7362145;19;20003;-76
2023/01/24 07:58:40;;;;;;;37.58;24.52;;;;;;;;;;7367931;19;20451;-74
2023/01/24 08:01:05;;;;;;;35.95;24.45;;;;;;;;;;7366263;19;20023;-76
2023/01/24 08:03:30;;;;;;;34.58;23.42;;;;;;;;;;7372297;19;20030;-76
2023/01/24 08:05:55;;;;;;;35.90;24.13;;;;;;;;;;7371342;19;19991;-76
2023/01/24 08:08:21;;;;;;;34.45;23.23;;;;;;;;;;7368432;19;20007;-75
2023/01/24 08:10:46;;;;;;;33.05;22.50;;;;;;;;;;7369993;19;20047;-74
2023/01/24 08:13:11;;;;;;;31.23;21.48;;;;;;;;;;7371754;19;20010;-75
2023/01/24 08:15:36;;;;;;;28.52;19.83;;;;;;;;;;7366195;19;20036;-74
2023/01/24 08:18:02;;;;;;;32.20;21.42;;;;;;;;;;7372754;19;20492;-74
2023/01/24 08:20:29;;;;;;;33.38;22.88;;;;;;;;;;7371923;19;20002;-74
2023/01/24 08:22:55;;;;;;;32.03;22.50;;;;;;;;;;7367417;19;20015;-75
2023/01/24 08:25:20;;;;;;;31.95;21.80;;;;;;;;;;7368740;19;20499;-75
2023/01/24 08:27:46;;;;;;;32.65;23.10;;;;;;;;;;7369038;19;20110;-75
2023/01/24 08:30:11;;;;;;;37.17;24.67;;;;;;;;;;7367732;19;20454;-74
2023/01/24 08:32:37;;;;;;;35.45;23.80;;;;;;;;;;7370564;19;20034;-75
2023/01/24 08:35:02;;;;;;;35.47;23.40;;;;;;;;;;7371365;19;20066;-75
2023/01/24 08:37:27;;;;;;;31.33;21.70;;;;;;;;;;7371827;19;20089;-74
2023/01/24 08:39:53;;;;;;;36.92;23.42;;;;;;;;;;7367001;19;20049;-75
2023/01/24 08:42:18;;;;;;;33.95;23.05;;;;;;;;;;7373193;19;20034;-74
2023/01/24 08:44:43;;;;;;;29.77;21.08;;;;;;;;;;7361876;19;20044;-76
2023/01/24 08:47:08;;;;;;;27.52;19.65;;;;;;;;;;7368015;19;20005;-75
2023/01/24 08:49:33;;;;;;;30.38;20.30;;;;;;;;;;7359539;19;20034;-74
2023/01/24 08:51:59;;;;;;;31.50;21.30;;;;;;;;;;7369220;19;20491;-76
2023/01/24 08:54:25;;;;;;;28.15;19.70;;;;;;;;;;7370475;19;20461;-76
2023/01/24 08:56:50;;;;;;;28.83;19.63;;;;;;;;;;7364264;19;20018;-75
2023/01/24 08:59:16;;;;;;;28.33;19.88;;;;;;;;;;7354422;19;20495;-74
2023/01/24 09:01:41;;;;;;;27.92;19.83;;;;;;;;;;7359816;19;20011;-74
2023/01/24 09:04:08;;;;;;;26.83;19.05;;;;;;;;;;7371428;19;20519;-74
2023/01/24 09:06:33;;;;;;;28.48;19.88;;;;;;;;;;7365861;19;20002;-76
2023/01/24 09:08:58;;;;;;;24.92;17.85;;;;;;;;;;7368986;19;20014;-75
2023/01/24 09:11:24;;;;;;;24.17;16.73;;;;;;;;;;7370016;19;20125;-74
2023/01/24 09:13:49;;;;;;;26.85;18.83;;;;;;;;;;7367749;19;20387;-74
2023/01/24 09:16:15;;;;;;;25.52;17.38;;;;;;;;;;7366325;19;20070;-74
2023/01/24 09:18:40;;;;;;;23.83;16.88;;;;;;;;;;7367980;19;20077;-74
2023/01/24 09:21:05;;;;;;;26.73;18.20;;;;;;;;;;7370728;19;20453;-75
2023/01/24 09:23:31;;;;;;;26.90;18.33;;;;;;;;;;7367217;19;20102;-74
2023/01/24 09:25:56;;;;;;;26.92;18.27;;;;;;;;;;7367056;19;20438;-74
2023/01/24 09:28:21;;;;;;;29.55;20.02;;;;;;;;;;7361259;19;20002;-75
2023/01/24 09:30:50;;;;;;;27.35;19.10;;;;;;;;;;7355419;19;19995;-74
2023/01/24 09:33:16;;;;;;;28.38;18.85;;;;;;;;;;7362506;19;20089;-74
2023/01/24 09:35:42;;;;;;;25.02;17.73;;;;;;;;;;7367423;19;20451;-76
2023/01/24 09:38:07;;;;;;;26.23;17.92;;;;;;;;;;7370262;19;20002;-75
2023/01/24 09:40:41;;;;;;;26.65;18.08;;;;;;;;;;7366220;19;20060;-76
2023/01/24 09:43:24;;;;;;;27.67;19.50;;;;;;;;;;7369102;19;20022;-76
2023/01/24 09:45:55;;;;;;;36.20;22.42;;;;;;;;;;7361787;19;20109;-75
2023/01/24 09:48:21;;;;;;;35.53;21.70;;;;;;;;;;7367750;19;20007;-75
2023/01/24 09:50:49;;;;;;;28.35;18.85;;;;;;;;;;7366556;19;20006;-75
2023/01/24 09:53:21;;;;;;;28.65;19.50;;;;;;;;;;7360868;19;20343;-74
2023/01/24 09:55:46;;;;;;;26.65;18.13;;;;;;;;;;7366381;19;19999;-75
2023/01/24 09:58:18;;;;;;;27.65;19.30;;;;;;;;;;7364261;19;20013;-75
2023/01/24 10:00:44;;;;;;;29.10;20.85;;;;;;;;;;7357905;19;20007;-75
2023/01/24 10:03:18;;;;;;;29.63;20.65;;;;;;;;;;7368319;19;20353;-76
2023/01/24 10:05:46;;;;;;;27.27;18.92;;;;;;;;;;7363770;19;20010;-75
2023/01/24 10:08:20;;;;;;;27.60;18.15;;;;;;;;;;7369158;19;20382;-75
2023/01/24 10:10:52;;;;;;;29.88;19.48;;;;;;;;;;7364860;19;20025;-76
2023/01/24 10:13:41;;;;;;;28.60;19.33;;;;;;;;;;7356135;19;20122;-75
2023/01/24 10:16:15;;;;;;;27.40;19.30;;;;;;;;;;7360196;19;20015;-75
2023/01/24 10:18:47;;;;;;;27.48;18.33;;;;;;;;;;7364996;19;20010;-76
2023/01/24 10:21:29;;;;;;;26.98;18.17;;;;;;;;;;7369372;19;20022;-75
2023/01/24 10:23:58;;;;;;;26.80;18.13;;;;;;;;;;7360617;19;20591;-76
2023/01/24 10:26:38;;;;;;;26.33;18.42;;;;;;;;;;7368155;19;20020;-77
2023/01/24 10:29:10;;;;;;;26.88;18.90;;;;;;;;;;7367203;19;20858;-78
2023/01/24 10:31:40;;;;;;;29.50;20.23;;;;;;;;;;7371096;19;20019;-77
2023/01/24 10:34:20;;;;;;;26.70;17.92;;;;;;;;;;7367929;19;20114;-77
2023/01/24 10:36:54;;;;;;;26.92;18.08;;;;;;;;;;7367396;19;20104;-77
2023/01/24 10:39:19;;;;;;;28.05;19.10;;;;;;;;;;7369146;19;20025;-77
2023/01/24 10:41:44;;;;;;;25.45;17.38;;;;;;;;;;7367754;19;20363;-77
2023/01/24 10:44:15;;;;;;;25.58;18.00;;;;;;;;;;7365796;19;20014;-78
2023/01/24 10:46:55;;;;;;;27.15;18.98;;;;;;;;;;7364179;19;20527;-77
2023/01/24 10:49:25;;;;;;;27.00;17.30;;;;;;;;;;7368956;19;20043;-77
2023/01/24 10:52:06;;;;;;;27.75;18.15;;;;;;;;;;7365759;19;20042;-77
2023/01/24 10:54:40;;;;;;;26.98;18.17;;;;;;;;;;7368236;19;20018;-78
2023/01/24 10:57:05;;;;;;;;;;;;;;;;;;7369792;19;20125;-77
2023/01/24 10:59:31;;;;;;;28.02;18.15;;;;;;;;;;7365912;19;19918;-77
2023/01/24 11:01:59;;;;;;;29.10;19.50;;;;;;;;;;7367750;19;20631;-76
2023/01/24 11:04:29;;;;;;;26.83;17.52;;;;;;;;;;7366568;19;20017;-77
2023/01/24 11:06:54;;;;;;;27.20;18.20;;;;;;;;;;7366153;19;20082;-76
2023/01/24 11:09:20;;;;;;;29.83;19.38;;;;;;;;;;7354364;19;20778;-77
2023/01/24 11:11:56;;;;;;;27.20;18.65;;;;;;;;;;7362038;19;19999;-77
2023/01/24 11:14:22;;;;;;;28.30;19.08;;;;;;;;;;7365678;19;20021;-77
2023/01/24 11:16:49;;;;;;;29.40;19.48;;;;;;;;;;7365834;19;20022;-77
2023/01/24 11:19:33;;;;;;;33.78;21.38;;;;;;;;;;7368686;19;20034;-76
2023/01/24 11:21:59;;;;;;;;;;;;;;;;;;7367344;19;20018;-77
2023/01/24 11:24:24;;;;;;;28.98;19.38;;;;;;;;;;7364060;19;19919;-77
2023/01/24 11:27:12;;;;;;;30.48;18.67;;;;;;;;;;7363295;19;20258;-77
2023/01/24 11:29:37;;;;;;;28.83;17.67;;;;;;;;;;7362031;19;20015;-75
2023/01/24 11:32:06;;;;;;;28.15;18.92;;;;;;;;;;7367559;19;20026;-76
2023/01/24 11:34:40;;;;;;;29.63;19.33;;;;;;;;;;7368303;19;20134;-76
2023/01/24 11:37:13;;;;;;;30.52;19.67;;;;;;;;;;7368066;19;20446;-77
2023/01/24 11:39:45;;;;;;;27.65;18.30;;;;;;;;;;7365766;19;20077;-77
2023/01/24 11:42:22;;;;;;;29.38;19.15;;;;;;;;;;7368574;19;20437;-76
2023/01/24 11:45:00;;;;;;;26.92;18.30;;;;;;;;;;7362105;19;20106;-77
2023/01/24 11:47:32;;;;;;;27.85;18.52;;;;;;;;;;7366588;19;20122;-77
2023/01/24 11:50:00;;;;;;;28.65;18.40;;;;;;;;;;7365413;19;20342;-77
2023/01/24 11:52:36;;;;;;;26.92;18.42;;;;;;;;;;7368921;19;20003;-76
2023/01/24 11:55:20;;;;;;;30.25;19.17;;;;;;;;;;7365885;19;20006;-76
2023/01/24 11:57:46;;;;;;;27.45;19.38;;;;;;;;;;7372106;19;20019;-77
2023/01/24 12:00:18;;;;;;;32.67;22.23;;;;;;;;;;7348735;19;20006;-78
2023/01/24 12:02:59;;;;;;;34.08;22.02;;;;;;;;;;7368774;19;20460;-77
2023/01/24 12:05:31;;;;;;;30.38;20.48;;;;;;;;;;7372386;19;20013;-77
2023/01/24 12:08:15;;;;;;;33.58;19.95;;;;;;;;;;7371972;19;20465;-77
2023/01/24 12:10:40;;;;;;;;;;;;;;;;;;7374251;19;20030;-76
2023/01/24 12:13:18;;;;;;;36.88;23.02;;;;;;;;;;7373690;19;20352;-76
2023/01/24 12:15:58;;;;;;;32.78;22.48;;;;;;;;;;7370541;19;20238;-76
2023/01/24 12:18:23;;;;;;;32.30;21.73;;;;;;;;;;7374438;19;20018;-77
2023/01/24 12:20:56;;;;;;;32.22;21.67;;;;;;;;;;7370302;19;20320;-77
2023/01/24 12:23:27;;;;;;;32.63;21.27;;;;;;;;;;7371799;19;20014;-77
2023/01/24 12:25:55;;;;;;;31.23;21.25;;;;;;;;;;7372112;19;20119;-77
2023/01/24 12:28:40;;;;;;;32.90;21.80;;;;;;;;;;7374571;19;20499;-76
2023/01/24 12:31:06;;;;;;;30.63;20.63;;;;;;;;;;7368889;19;20023;-77
2023/01/24 12:33:46;;;;;;;37.67;23.55;;;;;;;;;;7373436;19;20450;-76
2023/01/24 12:36:13;;;;;;;35.80;22.50;;;;;;;;;;7373138;19;20002;-77
2023/01/24 12:38:41;;;;;;;46.00;21.45;;;;;;;;;;7358389;19;20037;-77
2023/01/24 12:41:18;;;;;;;31.98;20.80;;;;;;;;;;7371376;19;20507;-77
2023/01/24 12:43:46;;;;;;;32.60;21.58;;;;;;;;;;7369174;19;20115;-77
2023/01/24 12:46:17;;;;;;;34.97;21.52;;;;;;;;;;7367367;19;20367;-77
2023/01/24 12:48:46;;;;;;;32.75;20.83;;;;;;;;;;7372496;19;20022;-76
2023/01/24 12:51:24;;;;;;;30.02;19.58;;;;;;;;;;7374450;19;20111;-77
2023/01/24 12:53:52;;;;;;;33.47;21.55;;;;;;;;;;7368318;19;20019;-76
2023/01/24 12:56:22;;;;;;;33.30;21.70;;;;;;;;;;7373422;19;20375;-76
2023/01/24 12:58:48;;;;;;;32.42;21.17;;;;;;;;;;7372181;19;20015;-76
2023/01/24 13:01:16;;;;;;;30.08;19.52;;;;;;;;;;7369555;19;20126;-76
2023/01/24 13:03:50;;;;;;;37.28;22.95;;;;;;;;;;7368249;19;20015;-77
2023/01/24 13:06:18;;;;;;;34.65;21.58;;;;;;;;;;7368953;19;20011;-76
2023/01/24 13:09:04;;;;;;;32.70;20.95;;;;;;;;;;7369263;19;20022;-77
2023/01/24 13:11:30;;;;;;;33.00;21.67;;;;;;;;;;7369439;19;20070;-77
2023/01/24 13:14:02;;;;;;;31.80;21.40;;;;;;;;;;7367144;19;20397;-76
2023/01/24 13:16:42;;;;;;;34.30;22.33;;;;;;;;;;7371786;19;20019;-77
2023/01/24 13:19:07;;;;;;;33.83;21.67;;;;;;;;;;7362018;19;20002;-76
2023/01/24 13:21:53;;;;;;;32.92;21.65;;;;;;;;;;7360135;19;20007;-75
2023/01/24 13:24:24;;;;;;;33.08;20.52;;;;;;;;;;7369114;19;20026;-77
2023/01/24 13:26:49;;;;;;;32.47;20.83;;;;;;;;;;7369395;19;20003;-76
2023/01/24 13:29:19;;;;;;;33.88;21.73;;;;;;;;;;7367900;19;20013;-76
2023/01/24 13:31:44;;;;;;;33.42;22.00;;;;;;;;;;7368023;19;20002;-77
2023/01/24 13:34:13;;;;;;;33.13;21.48;;;;;;;;;;7367993;19;20439;-76
2023/01/24 13:36:38;;;;;;;32.92;21.45;;;;;;;;;;7369758;19;20002;-77
2023/01/24 13:39:04;;;;;;;33.55;21.30;;;;;;;;;;7367037;19;20502;-77
2023/01/24 13:41:30;;;;;;;32.47;21.08;;;;;;;;;;7365087;19;20309;-78
2023/01/24 13:44:01;;;;;;;35.78;22.08;;;;;;;;;;7368341;19;20320;-78
2023/01/24 13:46:41;;;;;;;35.80;23.08;;;;;;;;;;7368000;19;20381;-77
2023/01/24 13:49:16;;;;;;;35.70;22.65;;;;;;;;;;7369585;19;20329;-76
2023/01/24 13:51:42;;;;;;;35.15;22.52;;;;;;;;;;7371939;19;20015;-76
2023/01/24 13:54:08;;;;;;;37.42;23.42;;;;;;;;;;7366579;19;20011;-75
2023/01/24 13:56:53;;;;;;;39.15;23.45;;;;;;;;;;7370853;19;20367;-76
2023/01/24 13:59:19;;;;;;;41.83;24.25;;;;;;;;;;7367841;19;20073;-76
2023/01/24 14:01:45;;;;;;;41.08;25.13;;;;;;;;;;7350834;19;20440;-76
2023/01/24 14:04:11;;;;;;;40.60;24.23;;;;;;;;;;7370989;19;20126;-76
2023/01/24 14:06:46;;;;;;;39.90;24.55;;;;;;;;;;7367461;19;20087;-76
2023/01/24 14:09:22;;;;;;;42.88;25.60;;;;;;;;;;7368020;19;20063;-75
2023/01/24 14:11:53;;;;;;;40.83;24.67;;;;;;;;;;7361142;19;19999;-79
2023/01/24 14:14:28;;;;;;;41.13;24.95;;;;;;;;;;7358360;19;20364;-75
2023/01/24 14:16:54;;;;;;;39.03;23.48;;;;;;;;;;7365559;19;20078;-76
2023/01/24 14:19:22;;;;;;;42.53;26.23;;;;;;;;;;7363222;19;20014;-76
2023/01/24 14:21:49;;;;;;;37.55;23.23;;;;;;;;;;7362009;19;20018;-76
2023/01/24 14:24:20;;;;;;;42.38;26.20;;;;;;;;;;7369353;19;20473;-76
2023/01/24 14:26:50;;;;;;;42.55;26.63;;;;;;;;;;7363639;19;20172;-78
2023/01/24 14:29:16;;;;;;;40.67;23.90;;;;;;;;;;7365266;19;20195;-76
2023/01/24 14:31:45;;;;;;;42.42;26.58;;;;;;;;;;7363966;19;20003;-76
2023/01/24 14:34:20;;;;;;;42.35;27.00;;;;;;;;;;7364364;19;20077;-75
2023/01/24 14:36:47;;;;;;;42.20;25.23;;;;;;;;;;7368378;19;20071;-77
2023/01/24 14:39:17;;;;;;;42.90;25.35;;;;;;;;;;7365023;19;20110;-76
2023/01/24 14:41:42;;;;;;;40.25;24.77;;;;;;;;;;7369273;19;20052;-77
2023/01/24 14:44:18;;;;;;;40.40;25.00;;;;;;;;;;7364172;19;20086;-76
2023/01/24 14:46:51;;;;;;;45.30;27.90;;;;;;;;;;7364872;19;20078;-76
2023/01/24 14:49:23;;;;;;;45.28;26.85;;;;;;;;;;7365710;19;20041;-78
2023/01/24 14:51:49;;;;;;;47.88;27.23;;;;;;;;;;7362232;19;20056;-76
2023/01/24 14:54:19;;;;;;;45.65;27.20;;;;;;;;;;7362961;19;20030;-76
2023/01/24 14:56:44;;;;;;;40.38;24.92;;;;;;;;;;7367213;19;20006;-76